createdAt,value
2022-09-02T00:00:53.667Z,1007.52
2022-09-02T00:01:53.939Z,1007.51
2022-09-02T00:02:54.057Z,1007.48
2022-09-02T00:03:54.759Z,1007.45
2022-09-02T00:04:54.781Z,1007.51
2022-09-02T00:05:54.447Z,1007.53
2022-09-02T00:06:54.613Z,1007.51
2022-09-02T00:07:54.777Z,1007.54
2022-09-02T00:08:54.948Z,1007.51
2022-09-02T00:09:55.100Z,1007.50
2022-09-02T00:10:55.285Z,1007.45
2022-09-02T00:11:55.414Z,1007.41
2022-09-02T00:12:55.603Z,1007.45
2022-09-02T00:13:55.747Z,1007.43
2022-09-02T00:14:56.762Z,1007.44
2022-09-02T00:15:56.144Z,1007.45
2022-09-02T00:16:56.353Z,1007.42
2022-09-02T00:17:57.272Z,1007.39
2022-09-02T00:18:56.668Z,1007.39
2022-09-02T00:19:56.811Z,1007.39
2022-09-02T00:20:56.971Z,1007.37
2022-09-02T00:21:57.110Z,1007.29
2022-09-02T00:22:58.231Z,1007.31
2022-09-02T00:23:57.431Z,1007.31
2022-09-02T00:24:58.777Z,1007.36
2022-09-02T00:25:58.764Z,1007.34
2022-09-02T00:26:58.763Z,1007.36
2022-09-02T00:27:58.136Z,1007.33
2022-09-02T00:28:58.301Z,1007.33
2022-09-02T00:29:58.513Z,1007.36
2022-09-02T00:30:58.777Z,1007.27
2022-09-02T00:31:59.373Z,1007.36
2022-09-02T00:32:59.063Z,1007.39
2022-09-02T00:33:59.282Z,1007.34
2022-09-02T00:34:59.426Z,1007.34
2022-09-02T00:35:59.779Z,1007.34
2022-09-02T00:37:00.768Z,1007.29
2022-09-02T00:38:00.020Z,1007.34
2022-09-02T00:39:00.186Z,1007.26
2022-09-02T00:40:01.266Z,1007.30
2022-09-02T00:41:00.784Z,1007.33
2022-09-02T00:42:00.694Z,1007.37
2022-09-02T00:43:00.886Z,1007.28
2022-09-02T00:44:01.023Z,1007.31
2022-09-02T00:45:02.780Z,1007.35
2022-09-02T00:46:01.496Z,1007.33
2022-09-02T00:47:01.521Z,1007.30
2022-09-02T00:48:01.781Z,1007.31
2022-09-02T00:49:02.772Z,1007.30
2022-09-02T00:50:02.023Z,1007.36
2022-09-02T00:51:02.175Z,1007.32
2022-09-02T00:52:03.271Z,1007.28
2022-09-02T00:53:02.536Z,1007.30
2022-09-02T00:54:02.678Z,1007.27
2022-09-02T00:55:03.774Z,1007.32
2022-09-02T00:56:04.043Z,1007.36
2022-09-02T00:57:03.189Z,1007.27
2022-09-02T00:58:03.384Z,1007.34
2022-09-02T00:59:04.536Z,1007.26
2022-09-02T01:00:04.278Z,1007.36
2022-09-02T01:01:04.888Z,1007.32
2022-09-02T01:02:04.143Z,1007.36
2022-09-02T01:03:04.237Z,1007.33
2022-09-02T01:04:04.405Z,1007.30
2022-09-02T01:05:04.581Z,1007.30
2022-09-02T01:06:05.285Z,1007.38
2022-09-02T01:07:04.913Z,1007.26
2022-09-02T01:08:05.080Z,1007.29
2022-09-02T01:09:05.262Z,1007.28
2022-09-02T01:10:05.450Z,1007.34
2022-09-02T01:11:06.376Z,1007.28
2022-09-02T01:12:05.792Z,1007.22
2022-09-02T01:13:05.978Z,1007.24
2022-09-02T01:14:06.147Z,1007.32
2022-09-02T01:15:06.336Z,1007.25
2022-09-02T01:16:06.617Z,1007.28
2022-09-02T01:17:06.695Z,1007.31
2022-09-02T01:18:06.870Z,1007.24
2022-09-02T01:19:07.782Z,1007.26
2022-09-02T01:20:07.172Z,1007.21
2022-09-02T01:21:07.346Z,1007.21
2022-09-02T01:22:07.514Z,1007.25
2022-09-02T01:23:07.637Z,1007.30
2022-09-02T01:24:07.780Z,1007.22
2022-09-02T01:25:07.893Z,1007.19
2022-09-02T01:26:08.121Z,1007.24
2022-09-02T01:27:08.386Z,1007.23
2022-09-02T01:28:08.479Z,1007.22
2022-09-02T01:29:08.703Z,1007.22
2022-09-02T01:30:09.784Z,1007.28
2022-09-02T01:31:09.077Z,1007.17
2022-09-02T01:32:09.138Z,1007.22
2022-09-02T01:33:09.265Z,1007.19
2022-09-02T01:34:10.286Z,1007.17
2022-09-02T01:35:10.291Z,1007.15
2022-09-02T01:36:10.289Z,1007.23
2022-09-02T01:37:09.867Z,1007.25
2022-09-02T01:38:10.298Z,1007.22
2022-09-02T01:39:10.300Z,1007.23
2022-09-02T01:40:10.816Z,1007.16
2022-09-02T01:41:10.446Z,1007.15
2022-09-02T01:42:10.594Z,1007.17
2022-09-02T01:43:10.846Z,1007.14
2022-09-02T01:44:10.893Z,1007.18
2022-09-02T01:45:11.047Z,1007.17
2022-09-02T01:46:11.257Z,1007.13
2022-09-02T01:47:11.418Z,1007.18
2022-09-02T01:48:12.288Z,1007.14
2022-09-02T01:49:11.810Z,1007.18
2022-09-02T01:50:11.973Z,1007.18
2022-09-02T01:51:12.132Z,1007.17
2022-09-02T01:52:13.290Z,1007.18
2022-09-02T01:53:12.538Z,1007.23
2022-09-02T01:54:12.661Z,1007.14
2022-09-02T01:55:12.810Z,1007.19
2022-09-02T01:56:12.972Z,1007.17
2022-09-02T01:57:13.135Z,1007.13
2022-09-02T01:58:13.264Z,1007.05
2022-09-02T01:59:14.296Z,1007.19
2022-09-02T02:00:13.535Z,1007.03
2022-09-02T02:01:13.790Z,1007.08
2022-09-02T02:02:13.869Z,1007.09
2022-09-02T02:03:14.046Z,1007.10
2022-09-02T02:04:14.167Z,1007.11
2022-09-02T02:05:14.285Z,1007.11
2022-09-02T02:06:14.812Z,1007.14
2022-09-02T02:07:14.560Z,1007.16
2022-09-02T02:08:14.688Z,1007.16
2022-09-02T02:09:15.796Z,1007.14
2022-09-02T02:10:15.306Z,1007.17
2022-09-02T02:11:15.205Z,1007.09
2022-09-02T02:12:16.300Z,1007.10
2022-09-02T02:13:15.568Z,1007.09
2022-09-02T02:14:15.751Z,1007.14
2022-09-02T02:15:15.919Z,1007.08
2022-09-02T02:16:16.168Z,1007.15
2022-09-02T02:17:16.264Z,1007.01
2022-09-02T02:18:16.449Z,1007.12
2022-09-02T02:19:17.301Z,1007.10
2022-09-02T02:20:17.311Z,1007.15
2022-09-02T02:21:17.003Z,1007.11
2022-09-02T02:22:17.167Z,1007.05
2022-09-02T02:23:18.437Z,1007.02
2022-09-02T02:24:17.478Z,1007.09
2022-09-02T02:25:17.649Z,1007.10
2022-09-02T02:26:17.860Z,1007.11
2022-09-02T02:27:18.008Z,1007.14
2022-09-02T02:28:18.174Z,1007.11
2022-09-02T02:29:19.303Z,1007.16
2022-09-02T02:30:18.556Z,1007.06
2022-09-02T02:31:18.872Z,1007.09
2022-09-02T02:32:19.805Z,1007.17
2022-09-02T02:33:19.172Z,1007.15
2022-09-02T02:34:19.358Z,1007.20
2022-09-02T02:35:19.510Z,1007.13
2022-09-02T02:36:19.673Z,1007.12
2022-09-02T02:37:24.729Z,1007.14
2022-09-02T02:38:22.808Z,1007.21
2022-09-02T02:39:20.215Z,1007.24
2022-09-02T02:40:20.481Z,1007.29
2022-09-02T02:41:20.553Z,1007.19
2022-09-02T02:42:21.316Z,1007.19
2022-09-02T02:43:20.959Z,1007.26
2022-09-02T02:44:21.127Z,1007.23
2022-09-02T02:45:22.311Z,1007.24
2022-09-02T02:46:21.568Z,1007.20
2022-09-02T02:47:21.826Z,1007.21
2022-09-02T02:48:21.961Z,1007.22
2022-09-02T02:49:22.173Z,1007.26
2022-09-02T02:50:22.821Z,1007.23
2022-09-02T02:51:22.426Z,1007.29
2022-09-02T02:52:22.580Z,1007.23
2022-09-02T02:53:23.511Z,1007.22
2022-09-02T02:54:22.850Z,1007.24
2022-09-02T02:55:23.993Z,1007.27
2022-09-02T02:56:23.086Z,1007.25
2022-09-02T02:57:23.243Z,1007.29
2022-09-02T02:58:23.368Z,1007.27
2022-09-02T02:59:24.317Z,1007.24
2022-09-02T03:00:23.707Z,1007.23
2022-09-02T03:01:23.906Z,1007.25
2022-09-02T03:02:24.098Z,1007.26
2022-09-02T03:03:24.142Z,1007.24
2022-09-02T03:04:24.295Z,1007.29
2022-09-02T03:05:24.827Z,1007.31
2022-09-02T03:06:26.470Z,1007.26
2022-09-02T03:07:24.750Z,1007.25
2022-09-02T03:08:24.887Z,1007.30
2022-09-02T03:09:25.041Z,1007.26
2022-09-02T03:10:25.277Z,1007.26
2022-09-02T03:11:26.320Z,1007.26
2022-09-02T03:12:26.319Z,1007.22
2022-09-02T03:13:25.715Z,1007.25
2022-09-02T03:14:25.823Z,1007.29
2022-09-02T03:15:25.990Z,1007.26
2022-09-02T03:16:26.866Z,1007.27
2022-09-02T03:17:26.290Z,1007.24
2022-09-02T03:18:26.432Z,1007.21
2022-09-02T03:19:26.578Z,1007.24
2022-09-02T03:20:27.338Z,1007.24
2022-09-02T03:21:26.937Z,1007.21
2022-09-02T03:22:27.094Z,1007.20
2022-09-02T03:23:27.213Z,1007.21
2022-09-02T03:24:27.362Z,1007.21
2022-09-02T03:25:32.255Z,1007.15
2022-09-02T03:26:29.326Z,1007.14
2022-09-02T03:27:27.904Z,1007.21
2022-09-02T03:28:28.084Z,1007.12
2022-09-02T03:29:28.232Z,1007.17
2022-09-02T03:30:28.353Z,1007.14
2022-09-02T03:31:28.613Z,1007.12
2022-09-02T03:32:30.596Z,1007.10
2022-09-02T03:33:28.920Z,1007.10
2022-09-02T03:34:29.187Z,1007.09
2022-09-02T03:35:29.344Z,1007.15
2022-09-02T03:36:30.324Z,1007.13
2022-09-02T03:37:30.334Z,1007.18
2022-09-02T03:38:29.839Z,1007.15
2022-09-02T03:39:29.953Z,1007.16
2022-09-02T03:40:30.186Z,1007.11
2022-09-02T03:41:30.222Z,1007.10
2022-09-02T03:42:30.381Z,1007.10
2022-09-02T03:43:30.560Z,1007.14
2022-09-02T03:44:30.701Z,1007.09
2022-09-02T03:45:30.881Z,1007.10
2022-09-02T03:46:31.072Z,1007.06
2022-09-02T03:47:31.238Z,1007.04
2022-09-02T03:48:31.380Z,1007.09
2022-09-02T03:49:31.560Z,1007.04
2022-09-02T03:50:31.713Z,1007.04
2022-09-02T03:51:31.852Z,1007.04
2022-09-02T03:52:31.989Z,1007.04
2022-09-02T03:53:32.138Z,1007.03
2022-09-02T03:54:32.831Z,1007.07
2022-09-02T03:55:32.457Z,1007.08
2022-09-02T03:56:32.601Z,1007.02
2022-09-02T03:57:33.332Z,1007.08
2022-09-02T03:58:33.344Z,1007.04
2022-09-02T03:59:33.076Z,1007.01
2022-09-02T04:00:33.835Z,1007.01
2022-09-02T04:01:34.501Z,1007.05
2022-09-02T04:02:34.405Z,1007.01
2022-09-02T04:03:34.332Z,1007.02
2022-09-02T04:04:34.834Z,1007.05
2022-09-02T04:05:34.082Z,1006.94
2022-09-02T04:06:34.346Z,1007.02
2022-09-02T04:07:35.340Z,1007.07
2022-09-02T04:08:35.332Z,1006.99
2022-09-02T04:09:34.947Z,1007.05
2022-09-02T04:10:35.068Z,1007.03
2022-09-02T04:11:35.216Z,1007.02
2022-09-02T04:12:35.851Z,1007.01
2022-09-02T04:13:35.465Z,1007.01
2022-09-02T04:14:36.347Z,1007.04
2022-09-02T04:15:35.818Z,1007.02
2022-09-02T04:16:35.990Z,1007.08
2022-09-02T04:17:36.187Z,1006.97
2022-09-02T04:18:36.314Z,1007.01
2022-09-02T04:19:36.567Z,1007.01
2022-09-02T04:20:37.337Z,1006.98
2022-09-02T04:21:36.825Z,1006.98
2022-09-02T04:22:36.952Z,1006.96
2022-09-02T04:23:37.091Z,1006.94
2022-09-02T04:24:37.229Z,1006.98
2022-09-02T04:25:37.374Z,1006.90
2022-09-02T04:26:38.857Z,1006.98
2022-09-02T04:27:38.707Z,1007.00
2022-09-02T04:28:37.922Z,1006.86
2022-09-02T04:29:38.073Z,1006.83
2022-09-02T04:30:38.269Z,1006.92
2022-09-02T04:31:38.477Z,1006.89
2022-09-02T04:32:40.860Z,1006.97
2022-09-02T04:33:39.839Z,1006.86
2022-09-02T04:34:39.842Z,1006.99
2022-09-02T04:35:39.109Z,1006.91
2022-09-02T04:36:39.273Z,1006.83
2022-09-02T04:37:39.430Z,1006.93
2022-09-02T04:38:39.563Z,1006.99
2022-09-02T04:39:40.349Z,1006.85
2022-09-02T04:40:39.915Z,1006.91
2022-09-02T04:41:41.859Z,1006.83
2022-09-02T04:42:40.862Z,1006.86
2022-09-02T04:43:40.342Z,1006.84
2022-09-02T04:44:40.473Z,1006.75
2022-09-02T04:45:40.624Z,1006.81
2022-09-02T04:46:40.804Z,1006.83
2022-09-02T04:47:40.983Z,1006.79
2022-09-02T04:48:41.115Z,1006.87
2022-09-02T04:49:41.255Z,1006.85
2022-09-02T04:50:41.398Z,1006.88
2022-09-02T04:51:42.353Z,1006.91
2022-09-02T04:52:41.721Z,1006.87
2022-09-02T04:53:41.871Z,1006.86
2022-09-02T04:54:41.995Z,1006.86
2022-09-02T04:55:42.137Z,1006.85
2022-09-02T04:56:42.851Z,1006.83
2022-09-02T04:57:42.480Z,1006.88
2022-09-02T04:58:42.739Z,1006.81
2022-09-02T04:59:42.877Z,1006.80
2022-09-02T05:00:43.859Z,1006.82
2022-09-02T05:01:43.982Z,1006.85
2022-09-02T05:02:43.512Z,1006.89
2022-09-02T05:03:43.584Z,1006.82
2022-09-02T05:04:43.740Z,1006.87
2022-09-02T05:05:43.920Z,1006.81
2022-09-02T05:06:44.804Z,1006.81
2022-09-02T05:07:45.295Z,1006.79
2022-09-02T05:08:44.419Z,1006.83
2022-09-02T05:09:44.619Z,1006.84
2022-09-02T05:10:44.788Z,1006.84
2022-09-02T05:11:44.973Z,1006.82
2022-09-02T05:12:45.120Z,1006.85
2022-09-02T05:13:45.265Z,1006.81
2022-09-02T05:14:45.437Z,1006.81
2022-09-02T05:15:46.383Z,1006.79
2022-09-02T05:16:45.843Z,1006.79
2022-09-02T05:17:45.965Z,1006.81
2022-09-02T05:18:46.877Z,1006.77
2022-09-02T05:19:46.294Z,1006.78
2022-09-02T05:20:46.872Z,1006.84
2022-09-02T05:21:46.599Z,1006.80
2022-09-02T05:22:46.738Z,1006.86
2022-09-02T05:23:46.852Z,1006.79
2022-09-02T05:24:47.867Z,1006.83
2022-09-02T05:25:47.214Z,1006.88
2022-09-02T05:26:47.448Z,1006.83
2022-09-02T05:27:47.585Z,1006.88
2022-09-02T05:28:47.748Z,1006.77
2022-09-02T05:29:48.374Z,1006.82
2022-09-02T05:30:48.182Z,1006.72
2022-09-02T05:31:48.421Z,1006.75
2022-09-02T05:32:48.562Z,1006.77
2022-09-02T05:33:48.761Z,1006.83
2022-09-02T05:34:48.922Z,1006.88
2022-09-02T05:35:49.903Z,1006.83
2022-09-02T05:36:49.218Z,1006.82
2022-09-02T05:37:49.379Z,1006.83
2022-09-02T05:38:49.908Z,1006.86
2022-09-02T05:39:50.365Z,1006.82
2022-09-02T05:40:49.991Z,1006.76
2022-09-02T05:41:50.106Z,1006.78
2022-09-02T05:42:50.864Z,1006.83
2022-09-02T05:43:50.504Z,1006.68
2022-09-02T05:44:51.402Z,1006.76
2022-09-02T05:45:50.851Z,1006.76
2022-09-02T05:46:50.917Z,1006.75
2022-09-02T05:47:51.079Z,1006.74
2022-09-02T05:48:51.245Z,1006.72
2022-09-02T05:49:51.410Z,1006.73
2022-09-02T05:50:57.624Z,1006.71
2022-09-02T05:51:53.371Z,1006.71
2022-09-02T05:52:51.861Z,1006.75
2022-09-02T05:53:52.043Z,1006.72
2022-09-02T05:54:52.189Z,1006.73
2022-09-02T05:55:52.360Z,1006.66
2022-09-02T05:56:52.511Z,1006.63
2022-09-02T05:57:52.887Z,1006.74
2022-09-02T05:58:53.870Z,1006.73
2022-09-02T05:59:53.138Z,1006.70
2022-09-02T06:00:53.867Z,1006.69
2022-09-02T06:01:53.563Z,1006.74
2022-09-02T06:02:53.790Z,1006.72
2022-09-02T06:03:53.955Z,1006.72
2022-09-02T06:04:54.118Z,1006.65
2022-09-02T06:05:54.264Z,1006.73
2022-09-02T06:06:54.420Z,1006.65
2022-09-02T06:07:54.578Z,1006.73
2022-09-02T06:08:55.375Z,1006.67
2022-09-02T06:09:54.891Z,1006.63
2022-09-02T06:10:55.035Z,1006.69
2022-09-02T06:11:55.278Z,1006.62
2022-09-02T06:12:55.432Z,1006.63
2022-09-02T06:13:55.561Z,1006.63
2022-09-02T06:14:55.725Z,1006.56
2022-09-02T06:15:55.955Z,1006.64
2022-09-02T06:16:56.130Z,1006.66
2022-09-02T06:17:56.291Z,1006.53
2022-09-02T06:18:56.530Z,1006.44
2022-09-02T06:19:56.669Z,1006.49
2022-09-02T06:20:56.800Z,1006.48
2022-09-02T06:21:56.977Z,1006.47
2022-09-02T06:22:57.127Z,1006.41
2022-09-02T06:23:57.292Z,1006.44
2022-09-02T06:24:58.400Z,1006.47
2022-09-02T06:25:57.667Z,1006.41
2022-09-02T06:26:58.380Z,1006.44
2022-09-02T06:27:58.016Z,1006.37
2022-09-02T06:28:58.150Z,1006.42
2022-09-02T06:29:58.320Z,1006.43
2022-09-02T06:30:58.615Z,1006.39
2022-09-02T06:31:58.691Z,1006.36
2022-09-02T06:32:58.848Z,1006.36
2022-09-02T06:33:59.011Z,1006.39
2022-09-02T06:34:59.197Z,1006.35
2022-09-02T06:35:59.389Z,1006.28
2022-09-02T06:37:00.378Z,1006.34
2022-09-02T06:38:00.386Z,1006.30
2022-09-02T06:38:59.936Z,1006.36
2022-09-02T06:40:00.915Z,1006.34
2022-09-02T06:41:00.306Z,1006.27
2022-09-02T06:42:00.500Z,1006.32
2022-09-02T06:43:02.385Z,1006.29
2022-09-02T06:44:00.861Z,1006.27
2022-09-02T06:45:01.037Z,1006.19
2022-09-02T06:46:01.935Z,1006.25
2022-09-02T06:47:01.356Z,1006.21
2022-09-02T06:48:02.383Z,1006.27
2022-09-02T06:49:02.610Z,1006.21
2022-09-02T06:50:01.732Z,1006.19
2022-09-02T06:51:01.885Z,1006.11
2022-09-02T06:52:02.396Z,1006.17
2022-09-02T06:53:02.212Z,1006.10
2022-09-02T06:54:02.361Z,1006.16
2022-09-02T06:55:02.514Z,1006.13
2022-09-02T06:56:02.668Z,1006.04
2022-09-02T06:57:02.837Z,1006.09
2022-09-02T06:58:03.886Z,1006.02
2022-09-02T06:59:03.133Z,1006.00
2022-09-02T07:00:03.277Z,1005.99
2022-09-02T07:01:04.468Z,1005.99
2022-09-02T07:02:04.218Z,1005.98
2022-09-02T07:03:03.781Z,1005.98
2022-09-02T07:04:03.936Z,1005.97
2022-09-02T07:05:04.186Z,1006.01
2022-09-02T07:06:04.320Z,1006.01
2022-09-02T07:07:04.464Z,1006.01
2022-09-02T07:08:04.603Z,1005.91
2022-09-02T07:09:04.754Z,1006.00
2022-09-02T07:10:04.924Z,1006.02
2022-09-02T07:11:05.090Z,1005.99
2022-09-02T07:12:05.960Z,1006.00
2022-09-02T07:13:05.460Z,1005.92
2022-09-02T07:14:06.394Z,1005.97
2022-09-02T07:15:05.912Z,1005.92
2022-09-02T07:16:05.949Z,1005.91
2022-09-02T07:17:06.974Z,1005.89
2022-09-02T07:18:06.303Z,1005.90
2022-09-02T07:19:11.597Z,1005.92
2022-09-02T07:20:09.395Z,1005.90
2022-09-02T07:21:06.866Z,1005.89
2022-09-02T07:22:07.897Z,1005.85
2022-09-02T07:23:07.297Z,1005.91
2022-09-02T07:24:07.440Z,1005.82
2022-09-02T07:25:07.632Z,1005.85
2022-09-02T07:26:07.775Z,1005.80
2022-09-02T07:27:07.922Z,1005.82
2022-09-02T07:28:08.898Z,1005.89
2022-09-02T07:29:08.255Z,1005.88
2022-09-02T07:30:08.913Z,1005.82
2022-09-02T07:31:09.489Z,1005.75
2022-09-02T07:32:08.866Z,1005.76
2022-09-02T07:33:09.118Z,1005.79
2022-09-02T07:34:09.226Z,1005.88
2022-09-02T07:35:09.466Z,1005.76
2022-09-02T07:36:11.039Z,1005.80
2022-09-02T07:37:11.082Z,1005.75
2022-09-02T07:38:11.417Z,1005.74
2022-09-02T07:39:10.900Z,1005.70
2022-09-02T07:40:10.257Z,1005.64
2022-09-02T07:41:10.381Z,1005.72
2022-09-02T07:42:10.613Z,1005.70
2022-09-02T07:43:10.864Z,1005.69
2022-09-02T07:44:11.122Z,1005.72
2022-09-02T07:45:11.251Z,1005.71
2022-09-02T07:46:11.953Z,1005.68
2022-09-02T07:47:11.569Z,1005.60
2022-09-02T07:48:11.950Z,1005.65
2022-09-02T07:49:12.908Z,1005.59
2022-09-02T07:50:18.483Z,1005.57
2022-09-02T07:51:14.291Z,1005.57
2022-09-02T07:52:12.524Z,1005.55
2022-09-02T07:53:12.678Z,1005.53
2022-09-02T07:54:12.814Z,1005.47
2022-09-02T07:55:15.122Z,1005.52
2022-09-02T07:56:14.119Z,1005.50
2022-09-02T07:57:13.372Z,1005.48
2022-09-02T07:58:16.173Z,1005.46
2022-09-02T07:59:13.741Z,1005.44
2022-09-02T08:00:13.879Z,1005.40
2022-09-02T08:01:14.187Z,1005.45
2022-09-02T08:02:14.304Z,1005.43
2022-09-02T08:03:14.493Z,1005.39
2022-09-02T08:04:15.408Z,1005.36
2022-09-02T08:05:14.791Z,1005.35
2022-09-02T08:06:14.961Z,1005.37
2022-09-02T08:07:15.124Z,1005.30
2022-09-02T08:08:15.309Z,1005.31
2022-09-02T08:09:16.413Z,1005.25
2022-09-02T08:10:15.644Z,1005.24
2022-09-02T08:11:16.437Z,1005.24
2022-09-02T08:12:20.124Z,1005.28
2022-09-02T08:13:17.143Z,1005.28
2022-09-02T08:14:16.912Z,1005.34
2022-09-02T08:15:16.529Z,1005.24
2022-09-02T08:16:16.780Z,1005.24
2022-09-02T08:17:16.905Z,1005.20
2022-09-02T08:18:21.801Z,1005.24
2022-09-02T08:19:18.275Z,1005.17
2022-09-02T08:20:18.419Z,1005.23
2022-09-02T08:21:17.633Z,1005.14
2022-09-02T08:22:17.761Z,1005.14
2022-09-02T08:23:35.442Z,1005.14
2022-09-02T08:24:20.134Z,1005.13
2022-09-02T08:25:18.916Z,1005.11
2022-09-02T08:26:19.420Z,1005.19
2022-09-02T08:27:19.417Z,1005.15
2022-09-02T08:28:19.449Z,1005.14
2022-09-02T08:29:19.925Z,1005.09
2022-09-02T08:30:19.918Z,1005.10
2022-09-02T08:31:19.435Z,1005.12
2022-09-02T08:32:19.606Z,1005.06
2022-09-02T08:33:19.943Z,1005.05
2022-09-02T08:34:19.994Z,1004.99
2022-09-02T08:35:20.185Z,1005.01
2022-09-02T08:36:20.313Z,1004.96
2022-09-02T08:37:21.419Z,1004.94
2022-09-02T08:38:20.671Z,1004.96
2022-09-02T08:39:21.420Z,1004.94
2022-09-02T08:40:21.552Z,1004.84
2022-09-02T08:41:21.301Z,1004.88
2022-09-02T08:42:21.430Z,1004.82
2022-09-02T08:43:21.561Z,1004.72
2022-09-02T08:44:22.420Z,1004.75
2022-09-02T08:45:21.934Z,1004.62
2022-09-02T08:46:22.107Z,1004.66
2022-09-02T08:47:22.933Z,1004.62
2022-09-02T08:48:22.446Z,1004.64
2022-09-02T08:49:23.421Z,1004.57
2022-09-02T08:50:22.800Z,1004.47
2022-09-02T08:51:22.957Z,1004.53
2022-09-02T08:52:23.439Z,1004.44
2022-09-02T08:53:23.419Z,1004.43
2022-09-02T08:54:23.499Z,1004.42
2022-09-02T08:55:23.934Z,1004.37
2022-09-02T08:56:23.826Z,1004.34
2022-09-02T08:57:24.928Z,1004.36
2022-09-02T08:58:24.447Z,1004.26
2022-09-02T08:59:24.931Z,1004.15
2022-09-02T09:00:24.558Z,1004.16
2022-09-02T09:01:24.893Z,1004.11
2022-09-02T09:02:25.023Z,1004.06
2022-09-02T09:03:25.124Z,1003.99
2022-09-02T09:04:25.300Z,1004.01
2022-09-02T09:05:25.449Z,1003.92
2022-09-02T09:06:26.428Z,1003.97
2022-09-02T09:07:25.934Z,1004.02
2022-09-02T09:08:26.095Z,1003.81
2022-09-02T09:09:26.194Z,1003.82
2022-09-02T09:10:26.312Z,1003.82
2022-09-02T09:11:27.431Z,1003.78
2022-09-02T09:12:26.950Z,1003.64
2022-09-02T09:13:26.837Z,1003.61
2022-09-02T09:14:26.979Z,1003.58
2022-09-02T09:15:27.124Z,1003.54
2022-09-02T09:16:27.305Z,1003.52
2022-09-02T09:17:27.400Z,1003.54
2022-09-02T09:18:27.527Z,1003.48
2022-09-02T09:19:27.944Z,1003.38
2022-09-02T09:20:27.934Z,1003.36
2022-09-02T09:21:28.068Z,1003.28
2022-09-02T09:22:28.203Z,1003.26
2022-09-02T09:23:28.932Z,1003.20
2022-09-02T09:24:30.967Z,1003.19
2022-09-02T09:25:28.659Z,1003.18
2022-09-02T09:26:29.438Z,1003.16
2022-09-02T09:27:29.047Z,1003.02
2022-09-02T09:28:29.204Z,1002.94
2022-09-02T09:29:29.446Z,1002.93
2022-09-02T09:30:29.501Z,1002.82
2022-09-02T09:31:29.716Z,1002.77
2022-09-02T09:32:29.774Z,1002.81
2022-09-02T09:33:29.904Z,1002.71
2022-09-02T09:34:30.087Z,1002.67
2022-09-02T09:35:30.259Z,1002.70
2022-09-02T09:36:30.431Z,1002.63
2022-09-02T09:37:35.207Z,1002.64
2022-09-02T09:38:32.801Z,1002.66
2022-09-02T09:39:31.455Z,1002.60
2022-09-02T09:40:31.286Z,1002.51
2022-09-02T09:41:31.380Z,1002.50
2022-09-02T09:42:31.542Z,1002.42
2022-09-02T09:43:32.477Z,1002.43
2022-09-02T09:44:32.441Z,1002.44
2022-09-02T09:45:32.982Z,1002.28
2022-09-02T09:46:32.504Z,1002.19
2022-09-02T09:47:32.466Z,1002.20
2022-09-02T09:48:32.600Z,1002.13
2022-09-02T09:49:33.450Z,1002.02
2022-09-02T09:50:32.968Z,1001.94
2022-09-02T09:51:49.853Z,1001.92
2022-09-02T09:52:34.377Z,1001.80
2022-09-02T09:53:33.612Z,1001.60
2022-09-02T09:54:33.744Z,1001.48
2022-09-02T09:55:36.868Z,1001.36
2022-09-02T09:56:37.702Z,1001.23
2022-09-02T09:57:35.876Z,1001.19
2022-09-02T09:58:34.963Z,1001.12
2022-09-02T09:59:34.654Z,1001.04
2022-09-02T10:00:34.907Z,1000.97
2022-09-02T10:01:34.946Z,1000.97
2022-09-02T10:02:36.653Z,1000.97
2022-09-02T10:03:36.377Z,1000.93
2022-09-02T10:04:44.203Z,1001.06
2022-09-02T10:05:38.455Z,1001.02
2022-09-02T10:06:35.882Z,1000.97
2022-09-02T10:07:36.030Z,1001.00
2022-09-02T10:08:36.958Z,1001.02
2022-09-02T10:09:36.302Z,1001.16
2022-09-02T10:10:36.541Z,1001.34
2022-09-02T10:11:36.683Z,1001.33
2022-09-02T10:12:36.804Z,1001.41
2022-09-02T10:13:36.954Z,1001.57
2022-09-02T10:14:37.098Z,1001.67
2022-09-02T10:15:37.228Z,1001.71
2022-09-02T10:16:37.989Z,1001.80
2022-09-02T10:17:37.595Z,1001.96
2022-09-02T10:18:37.970Z,1001.97
2022-09-02T10:19:38.466Z,1001.96
2022-09-02T10:20:44.603Z,1001.95
2022-09-02T10:21:44.865Z,1001.99
2022-09-02T10:22:59.643Z,1002.05
2022-09-02T10:23:39.972Z,1002.01
2022-09-02T10:24:38.690Z,1002.00
2022-09-02T10:25:38.814Z,1001.98
2022-09-02T10:26:39.458Z,1001.96
2022-09-02T10:27:39.068Z,1002.04
2022-09-02T10:28:39.482Z,1001.96
2022-09-02T10:29:39.404Z,1001.86
2022-09-02T10:30:39.562Z,1001.92
2022-09-02T10:31:40.022Z,1001.92
2022-09-02T10:32:39.942Z,1001.89
2022-09-02T10:33:40.962Z,1001.89
2022-09-02T10:34:40.474Z,1001.87
2022-09-02T10:35:40.965Z,1001.76
2022-09-02T10:36:40.568Z,1001.71
2022-09-02T10:37:41.467Z,1001.71
2022-09-02T10:38:41.461Z,1001.78
2022-09-02T10:39:41.091Z,1001.73
2022-09-02T10:40:41.598Z,1001.75
2022-09-02T10:41:41.547Z,1001.81
2022-09-02T10:42:41.611Z,1001.80
2022-09-02T10:43:41.757Z,1001.80
2022-09-02T10:44:41.957Z,1001.88
2022-09-02T10:45:42.139Z,1001.93
2022-09-02T10:46:42.356Z,1001.93
2022-09-02T10:47:42.506Z,1001.90
2022-09-02T10:48:42.586Z,1001.97
2022-09-02T10:49:42.716Z,1002.08
2022-09-02T10:50:45.526Z,1002.03
2022-09-02T10:51:44.972Z,1002.05
2022-09-02T10:52:43.480Z,1001.98
2022-09-02T10:53:43.998Z,1002.00
2022-09-02T10:54:43.497Z,1002.04
2022-09-02T10:55:44.472Z,1002.07
2022-09-02T10:56:43.845Z,1002.08
2022-09-02T10:57:44.490Z,1002.02
2022-09-02T10:58:44.118Z,1002.10
2022-09-02T10:59:44.266Z,1002.18
2022-09-02T11:00:45.015Z,1002.04
2022-09-02T11:01:44.982Z,1002.05
2022-09-02T11:02:45.836Z,1002.06
2022-09-02T11:03:44.995Z,1002.02
2022-09-02T11:04:45.979Z,1002.00
2022-09-02T11:05:45.973Z,1002.01
2022-09-02T11:07:02.009Z,1001.91
2022-09-02T11:07:47.736Z,1001.98
2022-09-02T11:08:45.938Z,1001.94
2022-09-02T11:09:46.084Z,1001.81
2022-09-02T11:10:46.233Z,1001.81
2022-09-02T11:11:47.005Z,1001.68
2022-09-02T11:12:47.519Z,1001.74
2022-09-02T11:13:46.754Z,1001.71
2022-09-02T11:14:46.916Z,1001.58
2022-09-02T11:15:47.117Z,1001.61
2022-09-02T11:16:47.248Z,1001.48
2022-09-02T11:17:48.001Z,1001.46
2022-09-02T11:18:47.598Z,1001.62
2022-09-02T11:19:47.721Z,1001.61
2022-09-02T11:20:47.846Z,1001.71
2022-09-02T11:21:47.973Z,1001.58
2022-09-02T11:22:48.100Z,1001.73
2022-09-02T11:23:49.224Z,1001.66
2022-09-02T11:24:48.439Z,1001.78
2022-09-02T11:25:48.600Z,1001.80
2022-09-02T11:26:48.782Z,1001.79
2022-09-02T11:27:48.896Z,1001.61
2022-09-02T11:28:49.985Z,1001.63
2022-09-02T11:29:49.256Z,1001.77
2022-09-02T11:30:49.501Z,1001.80
2022-09-02T11:31:49.489Z,1001.84
2022-09-02T11:32:49.647Z,1001.85
2022-09-02T11:33:49.797Z,1001.86
2022-09-02T11:34:50.029Z,1001.97
2022-09-02T11:35:50.201Z,1001.89
2022-09-02T11:36:50.987Z,1001.81
2022-09-02T11:37:50.480Z,1001.85
2022-09-02T11:38:50.614Z,1001.87
2022-09-02T11:40:02.287Z,1001.89
2022-09-02T11:41:53.213Z,1002.00
2022-09-02T11:42:52.021Z,1002.05
2022-09-02T11:43:52.050Z,1002.09
2022-09-02T11:44:52.391Z,1002.01
2022-09-02T11:45:52.550Z,1002.00
2022-09-02T11:46:52.605Z,1002.01
2022-09-02T11:47:52.272Z,1002.01
2022-09-02T11:48:52.513Z,1002.02
2022-09-02T11:49:52.627Z,1001.90
2022-09-02T11:50:53.498Z,1001.83
2022-09-02T11:51:52.902Z,1001.62
2022-09-02T11:52:53.030Z,1001.49
2022-09-02T11:53:55.031Z,1001.41
2022-09-02T11:54:53.314Z,1001.28
2022-09-02T11:55:54.000Z,1001.24
2022-09-02T11:56:54.495Z,1001.21
2022-09-02T11:57:53.865Z,1001.36
2022-09-02T11:58:54.014Z,1001.41
2022-09-02T11:59:54.992Z,1001.53
2022-09-02T12:00:54.355Z,1001.48
2022-09-02T12:01:55.498Z,1001.62
2022-09-02T12:02:54.684Z,1001.71
2022-09-02T12:05:00.384Z,1001.72
2022-09-02T12:05:56.544Z,1001.78
2022-09-02T12:06:55.638Z,1001.76
2022-09-02T12:07:56.497Z,1001.80
2022-09-02T12:08:55.922Z,1001.73
2022-09-02T12:09:56.998Z,1001.78